PWSweather.com
Personal Weather Stations
Station Observations

Banska StiavnicaSK

Lat: 48.4359865, Lon: 18.8969299

Elevation: 1804

Station Type: Garni WH1080

http://www.weather-in-banska-stiavnica.sk/index.php

Latest ConditionsUpdated 4:30:01 PM GMT+01:01 Tuesday, Sep 25, 2018
Currently Today's Max Today's Min Today's Average
Temperature 46.4°F8.0°C 50.0°F10.0°C 39.9°F4.4°C 44.3°F6.8°C
Dew Point 28.8°F-1.8°C 33.1°F0.6°C 27.2°F-2.7°C 30.7°F-0.7°C
Winds 2.4 mph NE3.9 kmh NE 11.4 mph -18.3 kmh - - 5.2 mph 8.4 kmh
Wind Gusts 8.3 mph13.4 kmh 27.3 mph43.9 kmh - -
Humidity 50% 74% 42% 60%
Pressure 30.42 in1030.1 mb 30.42 in1030.1 mb 30.22 in1023.4 mb -
Precipitation - 0.02 in0.5 mm - -
Hour Temp Dew Point Humidity Winds Wind Gusts Pressure Precip Precip Rate Daily Precip Total
04:30 PM 46.4°F8.0°C 28.8°F-1.8°C 50% 2.4 mph NE3.9 kmh NE 8.3 mph13.4 kmh 30.42 in1030.1 mb 0.00 in0.0 mm 0.00 in0.0 mm 0.02 in0.5 mm
04:00 PM 46.8°F8.2°C 28.1°F-2.2°C 48% 5.4 mph NE8.7 kmh NE 15.9 mph25.6 kmh 30.41 in1029.8 mb 0.00 in0.0 mm 0.00 in0.0 mm 0.02 in0.5 mm
03:30 PM 48.7°F9.3°C 29.9°F-1.2°C 48% 4.1 mph NNE6.6 kmh NNE 10.7 mph17.2 kmh 30.41 in1029.8 mb 0.00 in0.0 mm 0.00 in0.0 mm 0.02 in0.5 mm
03:00 PM 48.2°F9.0°C 28.4°F-2.0°C 46% 6.0 mph NE9.7 kmh NE 14.5 mph23.3 kmh 30.41 in1029.8 mb 0.00 in0.0 mm 0.00 in0.0 mm 0.02 in0.5 mm
02:30 PM 49.3°F9.6°C 27.2°F-2.7°C 42% 6.6 mph ENE10.6 kmh ENE 16.8 mph27.0 kmh 30.40 in1029.5 mb 0.00 in0.0 mm 0.00 in0.0 mm 0.02 in0.5 mm
02:00 PM 50.0°F10.0°C 28.4°F-2.0°C 43% 7.2 mph N11.6 kmh N 19.7 mph31.7 kmh 30.40 in1029.5 mb 0.00 in0.0 mm 0.00 in0.0 mm 0.02 in0.5 mm
01:30 PM 48.7°F9.3°C 29.4°F-1.4°C 47% 6.3 mph N10.1 kmh N 15.2 mph24.5 kmh 30.39 in1029.1 mb 0.00 in0.0 mm 0.00 in0.0 mm 0.02 in0.5 mm
01:00 PM 48.0°F8.9°C 30.3°F-0.9°C 50% 3.7 mph NNE6.0 kmh NNE 10.7 mph17.2 kmh 30.40 in1029.5 mb 0.00 in0.0 mm 0.00 in0.0 mm 0.02 in0.5 mm
12:30 PM 47.7°F8.7°C 29.9°F-1.2°C 50% 6.6 mph N10.6 kmh N 19.0 mph30.6 kmh 30.40 in1029.5 mb 0.00 in0.0 mm 0.00 in0.0 mm 0.02 in0.5 mm
12:00 PM 47.7°F8.7°C 29.9°F-1.2°C 50% 5.0 mph NE8.0 kmh NE 12.1 mph19.5 kmh 30.40 in1029.5 mb 0.00 in0.0 mm 0.00 in0.0 mm 0.02 in0.5 mm
11:30 AM 47.5°F8.6°C 28.3°F-2.1°C 47% 7.1 mph N11.4 kmh N 22.1 mph35.6 kmh 30.39 in1029.1 mb 0.00 in0.0 mm 0.00 in0.0 mm 0.02 in0.5 mm
11:00 AM 47.8°F8.8°C 29.1°F-1.6°C 48% 7.0 mph N11.3 kmh N 19.7 mph31.7 kmh 30.38 in1028.8 mb 0.00 in0.0 mm 0.00 in0.0 mm 0.02 in0.5 mm
10:30 AM 47.5°F8.6°C 30.3°F-0.9°C 51% 7.0 mph N11.3 kmh N 18.3 mph29.5 kmh 30.38 in1028.8 mb 0.00 in0.0 mm 0.00 in0.0 mm 0.02 in0.5 mm
10:00 AM 46.2°F7.9°C 31.0°F-0.6°C 55% 8.0 mph N12.9 kmh N 24.4 mph39.3 kmh 30.36 in1028.1 mb 0.00 in0.0 mm 0.00 in0.0 mm 0.02 in0.5 mm
09:30 AM 44.8°F7.1°C 31.3°F-0.4°C 59% 11.4 mph N18.3 kmh N 27.3 mph43.9 kmh 30.36 in1028.1 mb 0.00 in0.0 mm 0.00 in0.0 mm 0.02 in0.5 mm
09:00 AM 45.1°F7.3°C 32.9°F0.5°C 62% 5.2 mph NE8.4 kmh NE 13.6 mph21.9 kmh 30.35 in1027.8 mb 0.00 in0.0 mm 0.00 in0.0 mm 0.02 in0.5 mm
08:30 AM 43.9°F6.6°C 32.5°F0.3°C 64% 8.7 mph N14.0 kmh N 24.4 mph39.3 kmh 30.33 in1027.1 mb 0.00 in0.0 mm 0.00 in0.0 mm 0.02 in0.5 mm
08:00 AM 43.3°F6.3°C 33.1°F0.6°C 67% 4.3 mph NE6.9 kmh NE 13.6 mph21.9 kmh 30.32 in1026.8 mb 0.00 in0.0 mm 0.00 in0.0 mm 0.02 in0.5 mm
07:30 AM 42.4°F5.8°C 33.0°F0.6°C 69% 7.2 mph N11.6 kmh N 16.8 mph27.0 kmh 30.31 in1026.4 mb 0.00 in0.0 mm 0.00 in0.0 mm 0.02 in0.5 mm
07:00 AM 41.0°F5.0°C 33.0°F0.6°C 73% 5.7 mph N9.2 kmh N 14.5 mph23.3 kmh 30.30 in1026.1 mb 0.00 in0.0 mm 0.00 in0.0 mm 0.02 in0.5 mm
06:30 AM 39.9°F4.4°C 32.0°F0.0°C 73% 4.0 mph NNE6.4 kmh NNE 9.8 mph15.8 kmh 30.29 in1025.7 mb 0.00 in0.0 mm 0.00 in0.0 mm 0.02 in0.5 mm
06:00 AM 39.9°F4.4°C 32.0°F0.0°C 73% 5.1 mph NE8.2 kmh NE 13.6 mph21.9 kmh 30.27 in1025.1 mb 0.00 in0.0 mm 0.00 in0.0 mm 0.02 in0.5 mm
05:30 AM 40.3°F4.6°C 32.0°F0.0°C 72% 3.5 mph NNE5.6 kmh NNE 11.4 mph18.3 kmh 30.26 in1024.7 mb 0.00 in0.0 mm 0.00 in0.0 mm 0.02 in0.5 mm
05:00 AM 40.5°F4.7°C 32.5°F0.3°C 73% 6.1 mph NE9.8 kmh NE 15.2 mph24.5 kmh 30.25 in1024.4 mb 0.00 in0.0 mm 0.00 in0.0 mm 0.02 in0.5 mm
04:30 AM 40.3°F4.6°C 32.3°F0.2°C 73% 5.7 mph NE9.2 kmh NE 14.5 mph23.3 kmh 30.25 in1024.4 mb 0.00 in0.0 mm 0.00 in0.0 mm 0.02 in0.5 mm
04:00 AM 40.1°F4.5°C 32.5°F0.3°C 74% 6.2 mph NE10.0 kmh NE 16.8 mph27.0 kmh 30.25 in1024.4 mb 0.01 in0.3 mm 0.00 in0.0 mm 0.02 in0.5 mm
03:30 AM 40.1°F4.5°C 31.8°F-0.1°C 72% 3.8 mph ENE6.1 kmh ENE 8.3 mph13.4 kmh 30.24 in1024.0 mb 0.02 in0.5 mm 0.02 in0.5 mm 0.02 in0.5 mm
03:00 AM 41.5°F5.3°C 31.8°F-0.1°C 68% 2.3 mph NE3.7 kmh NE 8.3 mph13.4 kmh 30.25 in1024.4 mb 0.01 in0.3 mm 0.02 in0.5 mm 0.01 in0.3 mm
02:30 AM 42.1°F5.6°C 31.2°F-0.4°C 65% 4.1 mph NE6.6 kmh NE 10.7 mph17.2 kmh 30.23 in1023.7 mb 0.00 in0.0 mm 0.00 in0.0 mm 0.00 in0.0 mm
02:00 AM 42.1°F5.6°C 31.6°F-0.2°C 66% 6.2 mph NNE10.0 kmh NNE 15.2 mph24.5 kmh 30.23 in1023.7 mb 0.00 in0.0 mm 0.00 in0.0 mm 0.00 in0.0 mm
01:30 AM 41.2°F5.1°C 31.1°F-0.5°C 67% 1.4 mph SE2.3 kmh SE 6.0 mph9.7 kmh 30.23 in1023.7 mb 0.00 in0.0 mm 0.00 in0.0 mm 0.00 in0.0 mm
01:00 AM 41.2°F5.1°C 30.3°F-0.9°C 65% 0.5 mph S0.8 kmh S 5.4 mph8.7 kmh 30.23 in1023.7 mb 0.00 in0.0 mm 0.00 in0.0 mm 0.00 in0.0 mm
12:30 AM 42.1°F5.6°C 29.2°F-1.6°C 60% 0.4 mph ESE0.6 kmh ESE 2.2 mph3.5 kmh 30.23 in1023.7 mb 0.00 in0.0 mm 0.00 in0.0 mm 0.00 in0.0 mm
12:00 AM 43.5°F6.4°C 28.9°F-1.7°C 56% 2.0 mph NNE3.2 kmh NNE 5.4 mph8.7 kmh 30.22 in1023.4 mb 0.00 in0.0 mm 0.00 in0.0 mm 0.00 in0.0 mm